Time;durP1;ratioP1;P1;durP2;ratioP2;P2;SDS_P1;SDS_P2;PMS_P1;PMS_P2;Temp;Humidity;BMP_temperature;BMP_pressure;BME280_temperature;BME280_humidity;BME280_pressure;Samples;Min_cycle;Max_cycle;Signal;HPM_P1;HPM_P2
2020/12/14 00:01:08;;;;;;;62.70;42.03;;;;;;;0.82;88.49;98965.75;124933;1100;65211;-80
2020/12/14 00:03:35;;;;;;;68.10;43.83;;;;;;;0.80;88.87;98965.78;125384;1098;65687;-80
2020/12/14 00:06:02;;;;;;;67.40;44.30;;;;;;;0.83;88.93;98978.80;125035;1098;63901;-83
2020/12/14 00:08:29;;;;;;;71.63;45.97;;;;;;;0.81;88.86;98977.13;125004;1100;65131;-85
2020/12/14 00:10:55;;;;;;;75.23;47.33;;;;;;;0.81;89.10;98977.98;125407;1098;65298;-84
2020/12/14 00:13:21;;;;;;;71.00;45.43;;;;;;;0.84;88.62;98984.91;125407;1098;65133;-87
2020/12/14 00:15:48;;;;;;;69.92;44.48;;;;;;;0.82;88.41;98984.11;124951;1098;65173;-87
2020/12/14 00:18:15;;;;;;;68.07;45.57;;;;;;;0.83;88.54;98978.80;124959;1100;65123;-87
2020/12/14 00:20:41;;;;;;;71.33;47.77;;;;;;;0.87;88.84;98985.70;125050;1099;65206;-83
2020/12/14 00:23:08;;;;;;;76.77;51.35;;;;;;;0.93;88.75;98987.29;124940;1100;65165;-86
2020/12/14 00:25:34;;;;;;;84.43;52.00;;;;;;;0.94;88.85;98988.14;124951;1100;65232;-85
2020/12/14 00:28:01;;;;;;;85.80;53.10;;;;;;;0.95;88.81;98989.85;125263;1098;65141;-86
2020/12/14 00:30:27;;;;;;;81.90;52.97;;;;;;;0.95;88.37;98995.09;125131;1098;65326;-81
2020/12/14 00:32:54;;;;;;;78.77;50.43;;;;;;;0.95;89.12;98997.72;125421;1099;65150;-81
2020/12/14 00:35:21;;;;;;;75.20;49.80;;;;;;;0.96;89.07;98991.59;124958;1099;65312;-80
2020/12/14 00:37:48;;;;;;;73.37;47.37;;;;;;;0.95;88.83;98995.98;124910;1100;65208;-80
2020/12/14 00:40:14;;;;;;;74.83;50.10;;;;;;;0.96;88.80;98997.70;124971;1100;65216;-82
2020/12/14 00:42:44;;;;;;;76.95;47.98;;;;;;;0.98;88.62;98998.52;125356;1099;65153;-81
2020/12/14 00:45:10;;;;;;;74.77;48.60;;;;;;;0.98;88.54;99003.77;125268;1098;65104;-81
2020/12/14 00:47:36;;;;;;;80.30;48.83;;;;;;;0.98;89.03;98998.52;124836;1100;65147;-84
2020/12/14 00:50:04;;;;;;;82.67;49.60;;;;;;;0.96;88.50;98999.47;124835;1100;65223;-79
2020/12/14 00:52:30;;;;;;;82.87;49.53;;;;;;;0.97;88.76;99001.17;124841;1100;65185;-79
2020/12/14 00:54:56;;;;;;;76.33;48.23;;;;;;;0.98;88.99;99003.77;124787;1100;65678;-79
2020/12/14 00:57:23;;;;;;;79.37;50.20;;;;;;;1.01;88.84;99010.69;124794;1098;65163;-79
2020/12/14 00:59:49;;;;;;;84.23;53.70;;;;;;;1.04;88.67;99006.21;125169;1098;65277;-79
2020/12/14 01:02:22;;;;;;;85.80;51.60;;;;;;;1.06;88.44;99001.78;124793;1100;65252;-79
2020/12/14 01:04:50;;;;;;;83.73;50.63;;;;;;;1.08;88.48;99002.61;124794;1100;65175;-79
2020/12/14 01:07:16;;;;;;;86.80;53.27;;;;;;;1.10;88.98;98999.92;124808;1100;65237;-79
2020/12/14 01:09:43;;;;;;;90.15;52.30;;;;;;;1.08;88.69;99004.38;124801;1100;65146;-79
2020/12/14 01:12:09;;;;;;;94.77;54.67;;;;;;;1.06;88.71;99006.17;124752;1100;65153;-79
2020/12/14 01:14:36;;;;;;;79.37;51.90;;;;;;;1.02;88.42;99009.78;124779;1100;65265;-81
2020/12/14 01:17:03;;;;;;;74.80;48.90;;;;;;;1.04;88.66;99014.08;125219;1099;65170;-82
2020/12/14 01:19:29;;;;;;;78.87;49.43;;;;;;;1.09;89.10;99016.58;125301;1098;65242;-80
2020/12/14 01:21:55;;;;;;;79.83;49.37;;;;;;;1.16;89.05;99012.89;125316;1098;65159;-82
2020/12/14 01:24:22;;;;;;;78.80;47.80;;;;;;;1.21;89.11;99016.25;124862;1100;65310;-81
2020/12/14 01:26:48;;;;;;;79.05;48.10;;;;;;;1.21;88.81;99011.00;124881;1099;65166;-82
2020/12/14 01:29:15;;;;;;;82.03;50.77;;;;;;;1.18;88.95;99015.45;125326;1099;65521;-81
2020/12/14 01:31:42;;;;;;;86.53;52.67;;;;;;;1.13;88.04;99020.83;125218;1098;65150;-80
2020/12/14 01:34:08;;;;;;;83.80;50.60;;;;;;;1.08;88.26;99017.50;124914;1100;65537;-80
2020/12/14 01:36:35;;;;;;;79.43;47.60;;;;;;;1.06;88.62;99021.92;125296;1098;65288;-81
2020/12/14 01:39:01;;;;;;;68.07;44.07;;;;;;;1.02;88.44;99021.12;124801;1099;65141;-80
2020/12/14 01:41:28;;;;;;;75.33;47.23;;;;;;;0.98;88.27;99021.28;125300;1098;65151;-80
2020/12/14 01:43:54;;;;;;;86.07;49.30;;;;;;;0.97;88.63;99022.16;124907;1100;65156;-81
2020/12/14 01:46:29;;;;;;;77.27;48.60;;;;;;;0.97;88.93;99015.15;125231;1098;65594;-80
2020/12/14 01:49:02;;;;;;;78.20;49.93;;;;;;;0.96;88.41;99016.06;125294;1098;65179;-81
2020/12/14 01:51:30;;;;;;;83.07;49.80;;;;;;;0.98;88.90;99029.16;125316;1098;65163;-81
2020/12/14 01:53:59;;;;;;;91.90;53.17;;;;;;;0.99;89.06;99031.72;124859;1100;65083;-80
2020/12/14 01:56:26;;;;;;;81.97;50.17;;;;;;;1.03;88.67;99033.37;124889;1100;65262;-81
2020/12/14 01:58:53;;;;;;;82.77;51.97;;;;;;;1.05;88.80;99038.55;124887;1100;65195;-80
2020/12/14 02:01:19;;;;;;;92.93;53.40;;;;;;;1.03;88.61;99033.37;124889;1100;65290;-81
2020/12/14 02:03:46;;;;;;;92.67;57.60;;;;;;;1.03;88.59;99038.61;124865;1100;65246;-81
2020/12/14 02:06:12;;;;;;;98.00;60.77;;;;;;;1.01;88.93;99044.81;125269;1099;65143;-80
2020/12/14 02:08:39;;;;;;;109.77;61.43;;;;;;;0.93;88.45;99039.77;124851;1100;65159;-81
2020/12/14 02:11:05;;;;;;;115.77;68.40;;;;;;;0.91;88.59;99043.33;124821;1098;65141;-81
2020/12/14 02:13:31;;;;;;;121.23;67.80;;;;;;;0.86;88.32;99046.92;124882;1100;65322;-80
2020/12/14 02:15:58;;;;;;;102.40;60.55;;;;;;;0.86;88.90;99040.83;125310;1098;65150;-81
2020/12/14 02:18:24;;;;;;;90.33;55.40;;;;;;;0.83;88.97;99044.39;125294;1098;65153;-81
2020/12/14 02:20:51;;;;;;;85.07;52.83;;;;;;;0.83;88.51;99047.02;125257;1098;65275;-81
2020/12/14 02:23:17;;;;;;;97.17;58.77;;;;;;;0.86;89.08;99038.20;124863;1100;65156;-81
2020/12/14 02:25:44;;;;;;;102.50;60.97;;;;;;;0.92;89.19;99040.65;124851;1099;65252;-81
2020/12/14 02:28:10;;;;;;;106.07;61.43;;;;;;;0.95;88.98;99043.22;124834;1099;65112;-81
2020/12/14 02:30:37;;;;;;;100.00;65.03;;;;;;;0.96;89.34;99038.82;124858;1100;65163;-81
2020/12/14 02:33:03;;;;;;;105.87;66.33;;;;;;;0.97;88.92;99045.78;124860;1100;66313;-80
2020/12/14 02:35:29;;;;;;;109.10;69.10;;;;;;;0.96;88.96;99039.67;125285;1098;65080;-81
2020/12/14 02:37:56;;;;;;;101.23;66.20;;;;;;;0.96;89.05;99051.95;124935;1099;65178;-80
2020/12/14 02:40:22;;;;;;;106.40;66.53;;;;;;;0.95;88.49;99052.83;124918;1100;65185;-80
2020/12/14 02:42:49;;;;;;;95.90;62.37;;;;;;;0.98;88.72;99051.00;124861;1099;65285;-79
2020/12/14 02:45:15;;;;;;;105.50;69.10;;;;;;;1.03;88.96;99048.26;125137;1099;65130;-82
2020/12/14 02:47:42;;;;;;;115.27;70.70;;;;;;;1.07;88.76;99055.13;124930;1100;65271;-79
2020/12/14 02:50:09;;;;;;;102.40;64.12;;;;;;;1.06;89.00;99054.27;124928;1098;65322;-80
2020/12/14 02:52:35;;;;;;;99.25;66.20;;;;;;;1.05;88.99;99055.19;124896;1100;65185;-80
2020/12/14 02:55:02;;;;;;;104.70;68.45;;;;;;;1.03;89.11;99058.75;125287;1099;65136;-81
2020/12/14 02:57:28;;;;;;;99.63;67.43;;;;;;;0.98;88.61;99064.12;124837;1100;65127;-81
2020/12/14 02:59:55;;;;;;;97.12;66.42;;;;;;;0.98;89.02;99064.12;125252;1098;65195;-80
2020/12/14 03:02:21;;;;;;;94.77;63.77;;;;;;;1.04;89.03;99068.34;125298;1099;65287;-80
2020/12/14 03:04:48;;;;;;;91.47;60.07;;;;;;;1.07;89.37;99055.13;124842;1100;65140;-80
2020/12/14 03:07:14;;;;;;;95.00;60.10;;;;;;;1.10;89.15;99069.02;125171;1098;65140;-81
2020/12/14 03:09:40;;;;;;;102.50;62.70;;;;;;;1.14;88.88;99064.56;125314;1100;66338;-80
2020/12/14 03:12:07;;;;;;;100.60;68.05;;;;;;;1.18;88.67;99062.70;124923;1100;65541;-80
2020/12/14 03:14:33;;;;;;;103.63;69.23;;;;;;;1.17;88.74;99064.47;124820;1100;65579;-81
2020/12/14 03:17:01;;;;;;;105.83;68.85;;;;;;;1.15;89.04;99068.05;124913;1100;65252;-81
2020/12/14 03:19:27;;;;;;;110.40;70.60;;;;;;;1.10;89.11;99058.52;124913;1100;65150;-80
2020/12/14 03:21:54;;;;;;;99.57;66.20;;;;;;;1.07;88.60;99058.61;125186;1100;65223;-80
2020/12/14 03:24:20;;;;;;;92.50;58.83;;;;;;;1.11;89.23;99062.03;125281;1098;65316;-80
2020/12/14 03:26:48;;;;;;;91.73;59.20;;;;;;;1.18;89.05;99060.93;124860;1100;65191;-80
2020/12/14 03:29:15;;;;;;;92.60;59.93;;;;;;;1.26;89.26;99052.84;125288;1099;65154;-81
2020/12/14 03:31:42;;;;;;;93.00;65.30;;;;;;;1.30;89.39;99044.84;124844;1099;65335;-81
2020/12/14 03:34:08;;;;;;;104.23;72.23;;;;;;;1.30;89.28;99046.61;124827;1098;65213;-81
2020/12/14 03:36:34;;;;;;;102.97;70.87;;;;;;;1.30;89.08;99038.73;124854;1099;65281;-81
2020/12/14 03:39:01;;;;;;;107.40;74.33;;;;;;;1.29;89.08;99048.39;124906;1100;65133;-81
2020/12/14 03:41:27;;;;;;;111.70;75.50;;;;;;;1.27;89.03;99041.45;125204;1098;65118;-80
2020/12/14 03:43:54;;;;;;;104.80;70.63;;;;;;;1.21;88.76;99042.50;124912;1100;65161;-80
2020/12/14 03:46:23;;;;;;;103.10;65.10;;;;;;;1.17;88.91;99046.09;124880;1100;65165;-80
2020/12/14 03:48:53;;;;;;;94.65;61.95;;;;;;;1.19;88.76;99043.44;124882;1100;65280;-80
2020/12/14 03:51:21;;;;;;;105.67;64.80;;;;;;;1.16;88.55;99051.38;125362;1100;65223;-81
2020/12/14 03:53:49;;;;;;;104.37;65.93;;;;;;;1.10;88.39;99055.03;124805;1100;65156;-80
2020/12/14 03:56:23;;;;;;;108.50;69.40;;;;;;;1.02;88.81;99064.89;124898;1100;65137;-81
2020/12/14 03:58:50;;;;;;;111.20;69.93;;;;;;;0.97;88.25;99066.77;125256;1100;65284;-80
2020/12/14 04:01:25;;;;;;;120.97;81.03;;;;;;;0.92;89.11;99079.15;125304;1098;65256;-81
2020/12/14 04:03:53;;;;;;;117.15;74.70;;;;;;;0.86;88.87;99074.93;124940;1099;65163;-81
2020/12/14 04:06:24;;;;;;;98.13;64.37;;;;;;;0.84;88.79;99088.11;124823;1100;65242;-80
2020/12/14 04:08:54;;;;;;;110.83;67.83;;;;;;;0.88;88.77;99087.11;125380;1098;65192;-80
2020/12/14 04:11:21;;;;;;;103.37;66.13;;;;;;;0.92;88.92;99097.52;124889;1100;65352;-80
2020/12/14 04:13:48;;;;;;;106.97;69.77;;;;;;;0.96;89.17;99100.03;125224;1098;65297;-81
2020/12/14 04:16:15;;;;;;;110.50;72.63;;;;;;;0.96;89.31;99100.03;125328;1098;65224;-81
2020/12/14 04:18:42;;;;;;;111.23;76.13;;;;;;;0.95;89.03;99100.05;125278;1098;65199;-81
2020/12/14 04:21:08;;;;;;;115.07;77.13;;;;;;;1.00;88.96;99100.80;124806;1100;65172;-81
2020/12/14 04:23:36;;;;;;;108.13;69.40;;;;;;;1.01;88.91;99100.77;125185;1098;65198;-81
2020/12/14 04:26:03;;;;;;;108.63;68.57;;;;;;;1.02;89.43;99107.73;125282;1098;65317;-81
2020/12/14 04:28:30;;;;;;;99.10;66.20;;;;;;;1.04;88.89;99105.93;124794;1100;65261;-79
2020/12/14 04:30:57;;;;;;;100.40;69.50;;;;;;;1.04;88.63;99103.30;125137;1098;65306;-79
2020/12/14 04:33:23;;;;;;;109.77;76.90;;;;;;;1.07;89.28;99112.86;124803;1100;65130;-79
2020/12/14 04:35:49;;;;;;;112.50;77.27;;;;;;;1.08;89.05;99122.48;125156;1098;65250;-81
2020/12/14 04:38:16;;;;;;;119.55;80.42;;;;;;;1.08;89.02;99125.11;125297;1098;65213;-79
2020/12/14 04:40:42;;;;;;;132.73;84.07;;;;;;;1.09;89.55;99126.81;125290;1098;65207;-81
2020/12/14 04:43:09;;;;;;;125.47;82.83;;;;;;;1.07;88.97;99134.71;124918;1100;65153;-81
2020/12/14 04:45:37;;;;;;;106.10;69.40;;;;;;;1.07;89.19;99144.36;124963;1099;65438;-80
2020/12/14 04:48:04;;;;;;;104.33;66.30;;;;;;;1.06;88.70;99148.75;125160;1098;65619;-81
2020/12/14 04:50:31;;;;;;;94.43;64.10;;;;;;;1.08;89.03;99153.97;124827;1098;65410;-80
2020/12/14 04:53:02;;;;;;;103.83;67.80;;;;;;;1.12;89.43;99141.62;124826;1099;65229;-80
2020/12/14 04:55:29;;;;;;;114.97;76.10;;;;;;;1.21;89.78;99138.73;124894;1100;65182;-80
2020/12/14 04:57:55;;;;;;;121.97;76.33;;;;;;;1.26;89.50;99134.22;124885;1100;65174;-80
2020/12/14 05:00:22;;;;;;;122.97;77.57;;;;;;;1.31;89.06;99141.07;125211;1098;65170;-81
2020/12/14 05:02:55;;;;;;;119.80;77.87;;;;;;;1.34;89.54;99140.13;124821;1100;65250;-80
2020/12/14 05:05:23;;;;;;;96.50;63.37;;;;;;;1.37;89.27;99155.83;125231;1098;65610;-81
2020/12/14 05:07:50;;;;;;;92.85;60.75;;;;;;;1.35;88.99;99149.75;125243;1098;65177;-81
2020/12/14 05:10:22;;;;;;;91.50;58.97;;;;;;;1.38;89.26;99148.80;124998;1100;65191;-80
2020/12/14 05:12:49;;;;;;;92.05;61.15;;;;;;;1.39;88.90;99153.14;124967;1100;65154;-80
2020/12/14 05:15:17;;;;;;;100.30;62.77;;;;;;;1.43;89.04;99146.91;124900;1100;65275;-80
2020/12/14 05:17:44;;;;;;;97.07;65.53;;;;;;;1.49;89.50;99151.98;125324;1099;65211;-80
2020/12/14 05:20:19;;;;;;;100.77;66.37;;;;;;;1.47;89.09;99151.16;125340;1098;65231;-80
2020/12/14 05:23:11;;;;;;;98.83;67.53;;;;;;;1.43;88.94;99149.54;124997;1100;65226;-80
2020/12/14 05:25:38;;;;;;;99.13;62.73;;;;;;;1.35;88.65;99155.00;124936;1100;65514;-80
2020/12/14 05:28:14;;;;;;;93.67;60.60;;;;;;;1.31;89.11;99153.34;124943;1100;65215;-81
2020/12/14 05:30:48;;;;;;;87.57;59.10;;;;;;;1.40;89.56;99163.61;124939;1100;65178;-80
2020/12/14 05:33:19;;;;;;;97.77;63.87;;;;;;;1.45;89.16;99176.59;124952;1100;65252;-80
2020/12/14 05:35:46;;;;;;;97.40;66.47;;;;;;;1.50;89.24;99191.35;124861;1098;65291;-81
2020/12/14 05:38:17;;;;;;;102.53;71.87;;;;;;;1.53;89.09;99196.52;124884;1099;65175;-81
2020/12/14 05:40:48;;;;;;;101.37;70.00;;;;;;;1.50;88.54;99198.34;125356;1098;65178;-81
2020/12/14 05:43:17;;;;;;;102.27;70.17;;;;;;;1.46;88.44;99200.20;125336;1099;65242;-81
2020/12/14 05:45:45;;;;;;;93.43;64.13;;;;;;;1.41;88.39;99207.34;124857;1100;65630;-81
2020/12/14 05:48:22;;;;;;;93.70;62.70;;;;;;;1.37;89.02;99203.09;124893;1098;65185;-80
2020/12/14 05:50:50;;;;;;;89.97;61.53;;;;;;;1.42;89.04;99198.58;125281;1100;65241;-81
2020/12/14 05:53:20;;;;;;;100.57;66.93;;;;;;;1.42;89.13;99200.31;125235;1098;66313;-81
2020/12/14 05:55:47;;;;;;;101.40;68.40;;;;;;;1.39;88.61;99208.28;124851;1100;65147;-80
2020/12/14 05:58:15;;;;;;;108.50;73.83;;;;;;;1.36;88.47;99208.36;124902;1100;65562;-80
2020/12/14 06:00:46;;;;;;;111.87;77.13;;;;;;;1.31;88.41;99206.70;124896;1098;65194;-80
2020/12/14 06:03:13;;;;;;;110.90;78.00;;;;;;;1.27;89.04;99212.10;125317;1098;65169;-80
2020/12/14 06:05:41;;;;;;;100.95;69.35;;;;;;;1.26;88.53;99213.88;124843;1100;65250;-81
2020/12/14 06:08:25;;;;;;;103.87;68.70;;;;;;;1.28;89.01;99212.05;124907;1100;65303;-80
2020/12/14 06:10:57;;;;;;;104.13;69.53;;;;;;;1.27;88.52;99212.95;125332;1098;65217;-81
2020/12/14 06:13:30;;;;;;;114.33;78.30;;;;;;;1.33;89.09;99211.08;124877;1099;65166;-81
2020/12/14 06:16:00;;;;;;;114.67;81.90;;;;;;;1.37;88.83;99210.08;124924;1100;65124;-80
2020/12/14 06:18:33;;;;;;;112.03;76.95;;;;;;;1.36;88.83;99208.36;124790;1100;65218;-81
2020/12/14 06:21:01;;;;;;;118.90;81.57;;;;;;;1.38;88.80;99203.94;124897;1100;65201;-81
2020/12/14 06:23:36;;;;;;;114.67;78.00;;;;;;;1.37;88.56;99200.47;124928;1100;65178;-80
2020/12/14 06:26:07;;;;;;;116.27;77.57;;;;;;;1.38;89.23;99201.31;125020;1099;65202;-80
2020/12/14 06:28:34;;;;;;;107.17;73.83;;;;;;;1.36;88.76;99200.48;125258;1098;65143;-81
2020/12/14 06:31:01;;;;;;;95.70;68.57;;;;;;;1.35;88.93;99197.01;124984;1098;65255;-81
2020/12/14 06:33:34;;;;;;;106.13;71.73;;;;;;;1.34;88.39;99197.89;124902;1100;65166;-81
2020/12/14 06:36:24;;;;;;;106.43;74.63;;;;;;;1.34;89.03;99208.39;124943;1100;65239;-80
2020/12/14 06:38:52;;;;;;;115.07;83.53;;;;;;;1.35;88.79;99201.41;125243;1098;65074;-80
2020/12/14 06:41:24;;;;;;;120.07;87.57;;;;;;;1.34;88.68;99205.77;124816;1098;65534;-80
2020/12/14 06:44:04;;;;;;;129.87;92.40;;;;;;;1.33;88.48;99206.68;125280;1099;65201;-81
2020/12/14 06:46:32;;;;;;;107.90;77.90;;;;;;;1.31;88.74;99203.23;124923;1100;65197;-81
2020/12/14 06:49:00;;;;;;;105.53;75.37;;;;;;;1.27;88.67;99198.98;125322;1099;65490;-81
2020/12/14 06:51:49;;;;;;;103.63;70.30;;;;;;;1.25;88.49;99199.00;124841;1098;65153;-81
2020/12/14 06:54:42;;;;;;;95.50;66.97;;;;;;;1.24;88.96;99218.29;125265;1098;65156;-82
2020/12/14 06:57:17;;;;;;;96.73;66.20;;;;;;;1.28;88.60;99216.44;125275;1098;65195;-82
2020/12/14 06:59:54;;;;;;;106.97;73.57;;;;;;;1.30;88.79;99230.39;124948;1100;65226;-81
2020/12/14 07:02:39;;;;;;;107.47;74.33;;;;;;;1.32;88.70;99225.98;125250;1098;65521;-79
2020/12/14 07:05:28;;;;;;;108.90;74.23;;;;;;;1.33;88.85;99226.83;124866;1099;65182;-79
2020/12/14 07:07:56;;;;;;;108.87;76.65;;;;;;;1.33;88.79;99235.56;125137;1098;65076;-80
2020/12/14 07:10:27;;;;;;;100.47;69.17;;;;;;;1.35;88.41;99246.89;125238;1098;65127;-80
2020/12/14 07:12:54;;;;;;;96.37;64.90;;;;;;;1.40;88.91;99238.91;124843;1100;65115;-79
2020/12/14 07:15:25;;;;;;;90.75;66.35;;;;;;;1.46;88.62;99244.84;125275;1098;65156;-80
2020/12/14 07:18:04;;;;;;;101.30;70.60;;;;;;;1.50;88.35;99240.36;124844;1100;65204;-80
2020/12/14 07:20:33;;;;;;;105.80;77.80;;;;;;;1.50;88.73;99233.38;125285;1098;65186;-79
2020/12/14 07:23:07;;;;;;;110.43;79.07;;;;;;;1.52;88.43;99241.20;125254;1099;65226;-79
2020/12/14 07:25:34;;;;;;;113.23;80.67;;;;;;;1.53;88.88;99238.55;124857;1099;65268;-80
2020/12/14 07:28:03;;;;;;;135.43;96.00;;;;;;;1.56;88.22;99234.11;124795;1100;65240;-87
2020/12/14 07:30:30;;;;;;;101.13;71.47;;;;;;;1.56;88.71;99231.48;124937;1100;65159;-80
2020/12/14 07:32:59;;;;;;;94.50;65.53;;;;;;;1.56;88.62;99234.11;125311;1099;65223;-80
2020/12/14 07:35:25;;;;;;;83.97;59.77;;;;;;;1.56;88.26;99223.61;125311;1098;65511;-80
2020/12/14 07:37:52;;;;;;;91.37;64.47;;;;;;;1.58;88.33;99232.28;125338;1098;65153;-80
2020/12/14 07:40:18;;;;;;;92.77;65.60;;;;;;;1.63;88.88;99239.13;125207;1099;65273;-80
2020/12/14 07:42:45;;;;;;;92.20;65.50;;;;;;;1.68;88.77;99241.65;124903;1100;65175;-80
2020/12/14 07:45:15;;;;;;;92.80;65.40;;;;;;;1.69;88.60;99246.02;125286;1098;65262;-80
2020/12/14 07:47:43;;;;;;;100.17;68.30;;;;;;;1.67;88.23;99248.67;124879;1100;65277;-80
2020/12/14 07:50:13;;;;;;;92.53;62.03;;;;;;;1.67;88.47;99251.30;124857;1100;65250;-80
2020/12/14 07:52:40;;;;;;;88.17;59.83;;;;;;;1.70;88.17;99260.86;125318;1098;65252;-80
2020/12/14 07:55:09;;;;;;;83.07;57.80;;;;;;;1.73;88.54;99260.78;125320;1098;65126;-80
2020/12/14 07:57:38;;;;;;;95.20;61.53;;;;;;;1.79;88.00;99260.63;125270;1098;65130;-80
2020/12/14 08:00:10;;;;;;;104.20;70.73;;;;;;;1.82;88.06;99255.30;125301;1098;65310;-80
2020/12/14 08:02:38;;;;;;;112.63;71.30;;;;;;;1.84;87.85;99249.98;125343;1098;65180;-80
2020/12/14 08:05:13;;;;;;;107.63;71.20;;;;;;;1.87;88.02;99245.52;124837;1098;65152;-80
2020/12/14 08:07:48;;;;;;;97.17;64.63;;;;;;;1.89;87.67;99245.45;125293;1098;65185;-82
2020/12/14 08:10:15;;;;;;;83.80;57.23;;;;;;;1.91;88.29;99234.00;124860;1100;65121;-80
2020/12/14 08:12:43;;;;;;;81.20;56.87;;;;;;;1.94;87.84;99240.94;124878;1100;65313;-81
2020/12/14 08:15:15;;;;;;;82.73;53.73;;;;;;;1.95;87.25;99240.05;124859;1100;65185;-81
2020/12/14 08:17:42;;;;;;;80.70;56.53;;;;;;;2.01;87.88;99244.27;125355;1099;65156;-81
2020/12/14 08:20:23;;;;;;;87.93;60.33;;;;;;;2.06;87.88;99243.23;125280;1099;65150;-81
2020/12/14 08:22:50;;;;;;;94.17;63.77;;;;;;;2.11;87.52;99240.48;125297;1099;65169;-81
2020/12/14 08:25:21;;;;;;;93.80;62.87;;;;;;;2.11;87.29;99254.48;124875;1100;65211;-81
2020/12/14 08:27:50;;;;;;;89.50;60.35;;;;;;;2.09;86.71;99253.66;125252;1098;65610;-81
2020/12/14 08:30:20;;;;;;;86.27;59.73;;;;;;;2.10;87.44;99254.51;124841;1099;65124;-81
2020/12/14 08:33:09;;;;;;;91.17;60.53;;;;;;;2.17;87.54;99259.55;124922;1098;65136;-82
2020/12/14 08:35:40;;;;;;;92.83;64.30;;;;;;;2.27;87.43;99267.19;124854;1100;65298;-81
2020/12/14 08:38:10;;;;;;;94.90;64.15;;;;;;;2.27;87.29;99273.30;124875;1100;65210;-80
2020/12/14 08:40:37;;;;;;;94.90;66.90;;;;;;;2.29;87.37;99275.88;124992;1100;65239;-80
2020/12/14 08:43:12;;;;;;;99.90;69.13;;;;;;;2.34;87.37;99279.23;125309;1098;65222;-81
2020/12/14 08:45:58;;;;;;;88.23;60.43;;;;;;;2.33;86.81;99264.38;124855;1098;65156;-81
2020/12/14 08:48:25;;;;;;;84.27;59.33;;;;;;;2.37;87.27;99265.98;125213;1098;65195;-81
2020/12/14 08:51:15;;;;;;;87.03;57.10;;;;;;;2.37;86.81;99266.88;124952;1100;65109;-81
2020/12/14 08:53:43;;;;;;;87.37;60.93;;;;;;;2.45;86.86;99266.66;125287;1098;65313;-81
2020/12/14 08:56:16;;;;;;;87.97;61.50;;;;;;;2.53;87.20;99261.17;124935;1100;65242;-81
2020/12/14 08:58:48;;;;;;;85.40;61.20;;;;;;;2.60;86.74;99260.05;125276;1098;65259;-81
2020/12/14 09:01:14;;;;;;;87.93;61.30;;;;;;;2.62;86.59;99256.47;125143;1098;65149;-81
2020/12/14 09:03:53;;;;;;;89.85;59.70;;;;;;;2.63;86.50;99254.69;125350;1098;65195;-81
2020/12/14 09:06:47;;;;;;;80.30;55.07;;;;;;;2.70;86.56;99252.75;124931;1100;65641;-81
2020/12/14 09:09:14;;;;;;;76.53;54.90;;;;;;;2.75;86.53;99254.33;125220;1098;65188;-82
2020/12/14 09:11:41;;;;;;;79.95;54.60;;;;;;;2.79;86.29;99249.81;125298;1098;65131;-82
2020/12/14 09:14:09;;;;;;;84.17;57.10;;;;;;;2.82;86.16;99255.02;125299;1098;65156;-81
2020/12/14 09:16:36;;;;;;;79.77;59.70;;;;;;;2.84;85.71;99255.80;125274;1098;65147;-82
2020/12/14 09:19:03;;;;;;;89.30;62.47;;;;;;;2.86;86.21;99257.48;124906;1100;65597;-82
2020/12/14 09:21:31;;;;;;;79.63;55.33;;;;;;;2.93;85.79;99258.16;125265;1098;65169;-82
2020/12/14 09:24:16;;;;;;;70.13;48.53;;;;;;;2.94;85.95;99248.48;125242;1099;65137;-80
2020/12/14 09:26:44;;;;;;;74.53;50.53;;;;;;;2.95;85.60;99245.81;125238;1098;65195;-80
2020/12/14 09:29:11;;;;;;;75.70;51.83;;;;;;;2.96;85.55;99236.14;125259;1099;65178;-82
2020/12/14 09:31:39;;;;;;;74.17;52.90;;;;;;;2.92;85.46;99242.40;125204;1098;65198;-80
2020/12/14 09:34:06;;;;;;;71.80;51.80;;;;;;;2.94;85.39;99249.34;124885;1098;65133;-80
2020/12/14 09:36:33;;;;;;;74.87;57.30;;;;;;;2.99;85.71;99238.67;125209;1099;65130;-80
2020/12/14 09:38:59;;;;;;;82.97;57.23;;;;;;;3.07;85.69;99240.13;124831;1098;65201;-80
2020/12/14 09:41:30;;;;;;;82.30;56.83;;;;;;;3.10;85.72;99240.95;124907;1100;65301;-81
2020/12/14 09:43:58;;;;;;;80.67;56.53;;;;;;;3.18;85.30;99237.14;124926;1100;65304;-80
2020/12/14 09:46:30;;;;;;;80.40;57.93;;;;;;;3.24;85.79;99241.38;124849;1100;65108;-80
2020/12/14 09:48:58;;;;;;;81.60;55.93;;;;;;;3.33;85.60;99240.20;124871;1100;65166;-80
2020/12/14 09:51:25;;;;;;;78.25;54.90;;;;;;;3.38;85.51;99230.38;125251;1098;65198;-80
2020/12/14 09:53:52;;;;;;;75.77;54.60;;;;;;;3.41;85.05;99219.73;124865;1100;65223;-80
2020/12/14 09:56:19;;;;;;;72.10;52.33;;;;;;;3.40;85.14;99223.28;124871;1100;65163;-80
2020/12/14 09:58:46;;;;;;;73.33;52.43;;;;;;;3.36;85.11;99225.14;125300;1098;65157;-80
2020/12/14 10:01:13;;;;;;;73.93;50.83;;;;;;;3.35;84.84;99227.84;124872;1100;65322;-80
2020/12/14 10:03:40;;;;;;;70.77;52.47;;;;;;;3.36;85.15;99226.92;124844;1100;65142;-80
2020/12/14 10:06:13;;;;;;;76.90;54.03;;;;;;;3.41;85.25;99219.73;124881;1098;65175;-80
2020/12/14 10:08:41;;;;;;;78.37;56.67;;;;;;;3.51;84.94;99218.50;124881;1099;65288;-81
2020/12/14 10:11:08;;;;;;;74.40;54.30;;;;;;;3.57;84.97;99223.55;125305;1098;65154;-80
2020/12/14 10:13:39;;;;;;;72.50;53.07;;;;;;;3.59;85.04;99220.88;124878;1100;65195;-81
2020/12/14 10:16:07;;;;;;;78.25;53.95;;;;;;;3.60;84.33;99217.31;125346;1098;65176;-80
2020/12/14 10:18:34;;;;;;;75.73;54.63;;;;;;;3.59;84.79;99227.00;125352;1098;65263;-80
2020/12/14 10:21:01;;;;;;;70.90;50.90;;;;;;;3.59;84.51;99228.78;124844;1100;65188;-80
2020/12/14 10:23:28;;;;;;;71.47;49.00;;;;;;;3.60;84.77;99230.48;124869;1100;65170;-80
2020/12/14 10:25:54;;;;;;;67.47;50.07;;;;;;;3.62;84.39;99233.94;124861;1098;65137;-81
2020/12/14 10:28:21;;;;;;;72.03;52.23;;;;;;;3.64;84.30;99226.84;125287;1098;65108;-81
2020/12/14 10:30:48;;;;;;;76.47;53.57;;;;;;;3.65;84.63;99221.50;125213;1098;65357;-81
2020/12/14 10:33:16;;;;;;;76.30;55.30;;;;;;;3.70;84.57;99223.98;124844;1098;65537;-81
2020/12/14 10:35:44;;;;;;;75.70;54.67;;;;;;;3.71;84.43;99223.05;124935;1100;65188;-81
2020/12/14 10:38:11;;;;;;;68.20;49.57;;;;;;;3.69;84.20;99222.27;124903;1100;65213;-81
2020/12/14 10:40:38;;;;;;;71.20;50.23;;;;;;;3.70;84.56;99219.56;124847;1100;65176;-81
2020/12/14 10:43:04;;;;;;;66.43;51.53;;;;;;;3.75;84.50;99216.77;124822;1100;65227;-81
2020/12/14 10:45:31;;;;;;;70.77;52.70;;;;;;;3.80;84.47;99217.47;125332;1098;65156;-81
2020/12/14 10:47:58;;;;;;;74.83;56.27;;;;;;;3.86;84.34;99208.48;124867;1100;65235;-81
2020/12/14 10:50:26;;;;;;;77.13;56.93;;;;;;;3.89;84.28;99205.72;125184;1098;65156;-81
2020/12/14 10:52:53;;;;;;;79.55;56.70;;;;;;;3.86;83.74;99211.11;124861;1100;65153;-81
2020/12/14 10:55:20;;;;;;;74.83;55.00;;;;;;;3.86;83.91;99203.20;124927;1100;65191;-81
2020/12/14 10:57:47;;;;;;;73.50;52.43;;;;;;;3.89;84.36;99196.03;124896;1100;65141;-81
2020/12/14 11:00:13;;;;;;;71.33;52.10;;;;;;;3.90;84.32;99205.68;125296;1098;65196;-81
2020/12/14 11:02:40;;;;;;;76.17;57.53;;;;;;;3.94;84.11;99206.42;125218;1098;65243;-81
2020/12/14 11:05:10;;;;;;;80.10;56.20;;;;;;;3.94;84.38;99214.33;125267;1098;65185;-81
2020/12/14 11:07:37;;;;;;;77.70;57.40;;;;;;;3.94;84.24;99215.19;124848;1099;65111;-81
2020/12/14 11:10:05;;;;;;;81.10;57.30;;;;;;;3.96;83.65;99208.08;124859;1098;65121;-81
2020/12/14 11:12:33;;;;;;;73.13;52.27;;;;;;;3.89;83.79;99217.13;125305;1098;65150;-81
2020/12/14 11:15:00;;;;;;;66.13;50.17;;;;;;;3.86;83.62;99206.70;124851;1098;65633;-81
2020/12/14 11:17:26;;;;;;;70.27;49.53;;;;;;;3.79;83.45;99197.31;125227;1098;65253;-81
2020/12/14 11:19:53;;;;;;;70.65;52.15;;;;;;;3.81;83.81;99205.14;124881;1100;65309;-81
2020/12/14 11:22:19;;;;;;;78.57;61.37;;;;;;;3.82;83.89;99201.58;124891;1098;65175;-81